Time;durP1;ratioP1;P1;durP2;ratioP2;P2;SDS_P1;SDS_P2;PMS_P1;PMS_P2;Temp;Humidity;BMP_temperature;BMP_pressure;BME280_temperature;BME280_humidity;BME280_pressure;Samples;Min_cycle;Max_cycle;Signal;HPM_P1;HPM_P2
2022/09/29 00:02:06;;;;;;;4.10;3.80;;;9.70;91.60;;;;;;5024704;28;20457;-69
2022/09/29 00:04:33;;;;;;;4.05;3.75;;;9.70;91.90;;;;;;5023812;28;20435;-69
2022/09/29 00:07:01;;;;;;;3.90;3.65;;;9.70;91.60;;;;;;5027659;28;20458;-69
2022/09/29 00:09:28;;;;;;;3.97;3.67;;;9.60;91.60;;;;;;5026842;28;20466;-69
2022/09/29 00:11:55;;;;;;;4.40;4.10;;;9.60;92.00;;;;;;5032602;28;20637;-69
2022/09/29 00:14:22;;;;;;;5.18;4.78;;;9.50;92.60;;;;;;5024004;28;20438;-69
2022/09/29 00:16:49;;;;;;;4.18;3.80;;;9.50;92.90;;;;;;5028414;28;20761;-69
2022/09/29 00:19:16;;;;;;;4.40;4.00;;;9.40;92.80;;;;;;5017076;28;20587;-69
2022/09/29 00:21:43;;;;;;;4.60;4.30;;;9.40;92.60;;;;;;5023146;28;20811;-68
2022/09/29 00:24:11;;;;;;;4.40;4.10;;;9.40;92.40;;;;;;5025737;28;20456;-69
2022/09/29 00:26:38;;;;;;;4.10;3.80;;;9.40;92.30;;;;;;5031756;28;20441;-70
2022/09/29 00:29:05;;;;;;;4.20;3.90;;;9.40;91.80;;;;;;5028401;28;20439;-68
2022/09/29 00:31:33;;;;;;;4.50;4.10;;;9.40;91.90;;;;;;5024287;28;20487;-69
2022/09/29 00:34:00;;;;;;;6.05;4.68;;;9.30;92.00;;;;;;5025573;28;20462;-69
2022/09/29 00:36:28;;;;;;;4.82;4.40;;;9.30;92.00;;;;;;5016513;28;20434;-69
2022/09/29 00:38:56;;;;;;;5.10;4.70;;;9.20;92.50;;;;;;5024377;28;20517;-68
2022/09/29 00:41:27;;;;;;;5.10;4.70;;;9.20;93.10;;;;;;5030183;28;20462;-69
2022/09/29 00:43:58;;;;;;;5.20;4.82;;;9.20;93.70;;;;;;5032508;28;20543;-69
2022/09/29 00:46:33;;;;;;;5.20;4.80;;;9.10;93.40;;;;;;5022889;28;20442;-69
2022/09/29 00:49:03;;;;;;;5.57;5.07;;;9.10;93.60;;;;;;5021490;28;20479;-69
2022/09/29 00:51:31;;;;;;;5.85;5.35;;;9.10;93.70;;;;;;5019048;28;20556;-69
2022/09/29 00:53:59;;;;;;;5.30;4.90;;;9.10;93.70;;;;;;5025714;28;20434;-69
2022/09/29 00:56:29;;;;;;;5.80;5.40;;;9.00;93.70;;;;;;5022085;28;20426;-69
2022/09/29 00:58:59;;;;;;;5.70;5.20;;;9.00;94.00;;;;;;5032229;28;20518;-69
2022/09/29 01:01:29;;;;;;;6.10;5.60;;;9.00;94.00;;;;;;5027275;28;20449;-68
2022/09/29 01:04:01;;;;;;;6.00;5.50;;;8.90;94.20;;;;;;5018176;28;20820;-69
2022/09/29 01:06:32;;;;;;;6.43;5.93;;;8.90;94.10;;;;;;5017567;28;20444;-69
2022/09/29 01:09:01;;;;;;;5.80;5.30;;;8.90;94.50;;;;;;5024923;28;20499;-69
2022/09/29 01:11:30;;;;;;;6.28;5.68;;;8.80;94.60;;;;;;5025147;28;20969;-68
2022/09/29 01:14:02;;;;;;;6.32;5.72;;;8.80;95.00;;;;;;5023531;28;20431;-69
2022/09/29 01:16:29;;;;;;;6.40;5.80;;;8.70;95.30;;;;;;5026931;28;20473;-69
2022/09/29 01:18:57;;;;;;;6.80;6.20;;;8.70;95.60;;;;;;5025848;28;20525;-69
2022/09/29 01:21:34;;;;;;;6.53;6.00;;;8.70;96.00;;;;;;5022759;28;20446;-68
2022/09/29 01:24:18;;;;;;;6.75;6.20;;;8.70;96.20;;;;;;5032091;28;20423;-68
2022/09/29 01:27:21;;;;;;;6.88;6.28;;;8.60;96.40;;;;;;5017121;28;20461;-69
2022/09/29 01:30:14;;;;;;;7.20;6.50;;;8.60;96.50;;;;;;5024566;28;20438;-69
2022/09/29 01:33:00;;;;;;;6.82;6.32;;;8.50;96.60;;;;;;5022286;28;20485;-69
2022/09/29 01:35:32;;;;;;;6.50;6.00;;;8.50;96.70;;;;;;5018740;28;20481;-68
2022/09/29 01:38:13;;;;;;;7.30;6.70;;;8.50;96.90;;;;;;5021264;28;20501;-69
2022/09/29 01:40:48;;;;;;;7.22;6.70;;;8.50;97.00;;;;;;5017968;28;20434;-68
2022/09/29 01:43:18;;;;;;;7.10;6.60;;;8.40;97.10;;;;;;5025507;28;20470;-67
2022/09/29 01:45:50;;;;;;;7.68;6.90;;;8.40;97.20;;;;;;5028048;28;20486;-67
2022/09/29 01:48:22;;;;;;;7.20;6.60;;;8.40;97.20;;;;;;5018836;28;20452;-67
2022/09/29 01:50:53;;;;;;;7.82;7.22;;;8.40;97.20;;;;;;5022691;28;20490;-67
2022/09/29 01:53:25;;;;;;;9.00;8.20;;;8.30;97.30;;;;;;5021458;28;20491;-68
2022/09/29 01:55:55;;;;;;;8.98;8.20;;;8.30;97.40;;;;;;5019520;28;20443;-68
2022/09/29 01:58:27;;;;;;;9.15;8.45;;;8.30;97.60;;;;;;5028796;28;20444;-70
2022/09/29 02:01:00;;;;;;;9.40;8.60;;;8.30;97.70;;;;;;5028410;28;20514;-70
2022/09/29 02:03:31;;;;;;;10.02;9.18;;;8.30;97.70;;;;;;5024512;28;20429;-68
2022/09/29 02:06:01;;;;;;;9.50;8.70;;;8.30;97.80;;;;;;5023451;28;20480;-68
2022/09/29 02:08:33;;;;;;;9.90;9.20;;;8.20;97.70;;;;;;5032483;28;20453;-69
2022/09/29 02:11:03;;;;;;;10.13;9.43;;;8.20;97.80;;;;;;5034533;28;20509;-68
2022/09/29 02:13:32;;;;;;;10.25;9.45;;;8.20;97.80;;;;;;5027750;28;20444;-68
2022/09/29 02:16:00;;;;;;;10.60;9.70;;;8.10;97.90;;;;;;5024213;28;20461;-68
2022/09/29 02:18:33;;;;;;;9.97;9.17;;;8.10;98.00;;;;;;5029027;28;20875;-68
2022/09/29 02:21:01;;;;;;;10.10;9.40;;;8.10;98.00;;;;;;5023890;28;20446;-68
2022/09/29 02:23:27;;;;;;;9.50;8.80;;;8.10;98.10;;;;;;5029047;28;20517;-68
2022/09/29 02:25:57;;;;;;;10.30;9.60;;;8.10;98.00;;;;;;5021582;28;20444;-67
2022/09/29 02:28:24;;;;;;;9.90;8.90;;;8.00;98.10;;;;;;5031431;28;20429;-67
2022/09/29 02:30:51;;;;;;;9.98;9.07;;;8.00;98.10;;;;;;5029516;28;20554;-68
2022/09/29 02:33:20;;;;;;;10.85;10.02;;;8.00;98.10;;;;;;5021034;28;20450;-67
2022/09/29 02:35:57;;;;;;;9.80;9.10;;;8.00;98.10;;;;;;5020376;28;20927;-68
2022/09/29 02:38:35;;;;;;;10.43;9.57;;;7.90;98.10;;;;;;5031611;28;20577;-69
2022/09/29 02:41:07;;;;;;;9.98;9.18;;;7.90;98.10;;;;;;5034497;28;20433;-68
2022/09/29 02:43:53;;;;;;;10.65;9.75;;;7.90;98.20;;;;;;5028362;28;20451;-67
2022/09/29 02:46:36;;;;;;;9.80;9.10;;;7.90;98.30;;;;;;5029998;28;20499;-69
2022/09/29 02:49:24;;;;;;;10.50;9.50;;;7.90;98.20;;;;;;5021886;28;20466;-68
2022/09/29 02:51:57;;;;;;;9.45;8.65;;;7.90;98.30;;;;;;5025251;28;20529;-69
2022/09/29 02:54:40;;;;;;;10.20;9.30;;;7.80;98.20;;;;;;5032846;28;20447;-68
2022/09/29 02:57:16;;;;;;;9.80;8.93;;;7.80;98.30;;;;;;5032713;28;20448;-68
2022/09/29 02:59:50;;;;;;;9.40;8.70;;;7.80;98.20;;;;;;5029996;28;20748;-69
2022/09/29 03:02:23;;;;;;;9.98;9.18;;;7.70;98.10;;;;;;5015489;28;20460;-69
2022/09/29 03:04:50;;;;;;;9.50;8.70;;;7.70;98.10;;;;;;5022158;28;20806;-68
2022/09/29 03:07:18;;;;;;;9.60;8.80;;;7.80;98.00;;;;;;5030783;28;20433;-69
2022/09/29 03:09:45;;;;;;;10.05;9.25;;;7.70;97.90;;;;;;5030238;28;20450;-69
2022/09/29 03:12:12;;;;;;;10.27;9.48;;;7.70;97.80;;;;;;5030314;28;20449;-69
2022/09/29 03:14:38;;;;;;;9.90;9.10;;;7.70;97.80;;;;;;5030798;28;20458;-68
2022/09/29 03:17:05;;;;;;;10.50;9.60;;;7.60;97.80;;;;;;5026528;28;20780;-68
2022/09/29 03:19:32;;;;;;;10.77;9.90;;;7.60;97.90;;;;;;5021307;28;20514;-69
2022/09/29 03:21:58;;;;;;;10.27;9.48;;;7.60;97.90;;;;;;5026492;28;20458;-68
2022/09/29 03:24:27;;;;;;;10.40;9.50;;;7.60;98.00;;;;;;5033175;28;20437;-67
2022/09/29 03:26:53;;;;;;;9.68;8.98;;;7.60;98.00;;;;;;5025391;28;20450;-68
2022/09/29 03:29:20;;;;;;;9.20;8.40;;;7.50;97.90;;;;;;5034099;28;20522;-68
2022/09/29 03:31:47;;;;;;;9.52;8.73;;;7.50;97.90;;;;;;5026464;28;20463;-66
2022/09/29 03:34:14;;;;;;;9.50;8.70;;;7.50;97.90;;;;;;5025141;28;20823;-67
2022/09/29 03:36:41;;;;;;;9.55;8.85;;;7.50;97.80;;;;;;5024724;28;20435;-67
2022/09/29 03:39:08;;;;;;;8.70;8.00;;;7.50;97.90;;;;;;5036990;28;20919;-67
2022/09/29 03:41:36;;;;;;;9.23;8.43;;;7.40;97.90;;;;;;5034719;28;20893;-68
2022/09/29 03:44:03;;;;;;;8.63;7.93;;;7.40;97.90;;;;;;5036767;28;20450;-68
2022/09/29 03:46:30;;;;;;;8.52;7.93;;;7.40;97.80;;;;;;5024102;28;20430;-68
2022/09/29 03:48:56;;;;;;;9.10;8.30;;;7.30;97.80;;;;;;5024638;28;20439;-69
2022/09/29 03:51:23;;;;;;;8.60;8.00;;;7.30;97.80;;;;;;5026126;28;20514;-68
2022/09/29 03:53:50;;;;;;;8.25;7.55;;;7.30;97.90;;;;;;5026104;28;20432;-69
2022/09/29 03:56:17;;;;;;;7.80;7.20;;;7.30;97.90;;;;;;5031246;28;20783;-69
2022/09/29 03:58:45;;;;;;;9.50;8.70;;;7.20;97.90;;;;;;5031664;28;20430;-68
2022/09/29 04:01:12;;;;;;;8.70;7.90;;;7.20;98.00;;;;;;5023798;28;20894;-69
2022/09/29 04:03:38;;;;;;;8.55;7.85;;;7.20;98.00;;;;;;5022842;28;20442;-69
2022/09/29 04:06:06;;;;;;;7.82;7.22;;;7.20;98.10;;;;;;5029142;28;20440;-69
2022/09/29 04:08:35;;;;;;;8.32;7.72;;;7.20;98.20;;;;;;5023123;28;20808;-69
2022/09/29 04:11:01;;;;;;;9.20;8.40;;;7.20;98.30;;;;;;5022964;28;20434;-70
2022/09/29 04:13:28;;;;;;;9.18;8.40;;;7.20;98.30;;;;;;5021028;28;20438;-68
2022/09/29 04:15:59;;;;;;;8.68;7.90;;;7.20;98.30;;;;;;5019430;28;20430;-68
2022/09/29 04:18:25;;;;;;;8.30;7.70;;;7.10;98.20;;;;;;5039727;28;20457;-70
2022/09/29 04:20:53;;;;;;;8.02;7.30;;;7.10;98.30;;;;;;5022250;28;20434;-67
2022/09/29 04:23:20;;;;;;;8.60;7.90;;;7.20;98.20;;;;;;5054053;22;20441;-69
2022/09/29 04:25:47;;;;;;;8.70;8.00;;;7.10;98.20;;;;;;5073603;28;20498;-71
2022/09/29 04:28:14;;;;;;;9.70;8.80;;;7.10;98.20;;;;;;5069610;28;20434;-69
2022/09/29 04:30:41;;;;;;;9.02;8.23;;;7.10;98.20;;;;;;5070836;28;20431;-71
2022/09/29 04:33:09;;;;;;;9.10;8.30;;;7.10;98.20;;;;;;5060944;28;20444;-70
2022/09/29 04:35:35;;;;;;;9.20;8.40;;;7.00;98.20;;;;;;5063944;28;20421;-70
2022/09/29 04:38:02;;;;;;;9.60;8.80;;;7.00;98.20;;;;;;5068169;28;20411;-70
2022/09/29 04:40:29;;;;;;;9.05;8.35;;;7.00;98.10;;;;;;5064256;28;20448;-70
2022/09/29 04:42:56;;;;;;;9.10;8.40;;;7.00;98.20;;;;;;5065057;28;20919;-69
2022/09/29 04:45:22;;;;;;;9.10;8.40;;;7.00;98.10;;;;;;5068301;28;20439;-70
2022/09/29 04:47:49;;;;;;;9.43;8.63;;;7.00;98.10;;;;;;5067635;28;20431;-70
2022/09/29 04:50:18;;;;;;;8.55;7.85;;;6.90;98.20;;;;;;5058803;28;20435;-71
2022/09/29 04:52:45;;;;;;;8.55;7.85;;;6.90;98.10;;;;;;5065044;28;20424;-72
2022/09/29 04:55:12;;;;;;;8.80;8.00;;;6.90;98.00;;;;;;5060666;28;20454;-70
2022/09/29 04:57:39;;;;;;;8.47;7.77;;;6.90;98.10;;;;;;5056784;28;20438;-70
2022/09/29 05:00:08;;;;;;;8.60;7.90;;;6.80;98.10;;;;;;5056701;28;20430;-70
2022/09/29 05:02:35;;;;;;;9.75;8.85;;;6.80;98.10;;;;;;5056338;28;20439;-71
2022/09/29 05:05:02;;;;;;;9.32;8.60;;;6.70;98.00;;;;;;5059567;28;20424;-71
2022/09/29 05:07:30;;;;;;;9.00;8.30;;;6.70;98.10;;;;;;5054203;28;20434;-71
2022/09/29 05:09:56;;;;;;;10.30;9.40;;;6.70;98.10;;;;;;5052078;28;20417;-71
2022/09/29 05:12:23;;;;;;;9.88;9.07;;;6.70;98.10;;;;;;5049314;28;20525;-70
2022/09/29 05:14:50;;;;;;;10.35;9.45;;;6.70;98.20;;;;;;5056250;28;20444;-70
2022/09/29 05:17:17;;;;;;;10.27;9.37;;;6.70;98.40;;;;;;5059619;28;20441;-70
2022/09/29 05:19:43;;;;;;;10.40;9.50;;;6.70;98.50;;;;;;5060174;28;21060;-69
2022/09/29 05:22:11;;;;;;;11.18;10.18;;;6.70;98.50;;;;;;5058311;28;20795;-70
2022/09/29 05:24:39;;;;;;;16.52;12.32;;;6.70;98.70;;;;;;5057728;28;20468;-70
2022/09/29 05:27:05;;;;;;;13.55;12.32;;;6.80;98.80;;;;;;5059370;28;20458;-72
2022/09/29 05:29:32;;;;;;;13.00;11.80;;;6.80;98.80;;;;;;5059133;28;20427;-71
2022/09/29 05:31:59;;;;;;;37.80;13.83;;;6.80;98.80;;;;;;5058721;28;20459;-69
2022/09/29 05:34:25;;;;;;;25.10;12.80;;;6.80;98.80;;;;;;5059344;28;20906;-71
2022/09/29 05:36:52;;;;;;;17.05;12.90;;;6.80;98.70;;;;;;5058310;28;20423;-71
2022/09/29 05:39:20;;;;;;;49.72;14.80;;;6.70;98.70;;;;;;5059524;28;20437;-71
2022/09/29 05:41:48;;;;;;;42.92;15.15;;;6.70;98.70;;;;;;5058508;28;20452;-71
2022/09/29 05:44:15;;;;;;;57.95;15.70;;;6.60;99.10;;;;;;5059300;28;20436;-72
2022/09/29 05:46:42;;;;;;;33.92;14.48;;;6.60;98.70;;;;;;5057477;28;20506;-71
2022/09/29 05:49:09;;;;;;;29.63;14.35;;;6.50;98.70;;;;;;5055976;28;20427;-71
2022/09/29 05:51:36;;;;;;;24.50;13.88;;;6.50;98.80;;;;;;5057754;28;20436;-71
2022/09/29 05:54:03;;;;;;;43.53;15.52;;;6.50;99.00;;;;;;5059432;28;20442;-71
2022/09/29 05:56:30;;;;;;;34.80;13.95;;;6.60;99.10;;;;;;5058469;28;20430;-70
2022/09/29 05:59:00;;;;;;;18.85;13.40;;;6.60;99.10;;;;;;5057502;28;20502;-72
2022/09/29 06:01:27;;;;;;;21.57;14.03;;;6.70;99.20;;;;;;5058814;28;20443;-72
2022/09/29 06:03:54;;;;;;;21.80;13.83;;;6.70;99.20;;;;;;5057907;28;20440;-72
2022/09/29 06:06:23;;;;;;;19.38;13.63;;;6.70;99.20;;;;;;5057544;28;20423;-71
2022/09/29 06:08:51;;;;;;;23.77;13.70;;;6.80;99.50;;;;;;5056914;28;20513;-71
2022/09/29 06:11:19;;;;;;;20.05;14.30;;;6.80;98.90;;;;;;5057807;28;20419;-72
2022/09/29 06:13:48;;;;;;;30.45;15.68;;;6.70;98.90;;;;;;5057289;28;20428;-72
2022/09/29 06:16:18;;;;;;;38.67;14.68;;;6.70;99.10;;;;;;5057927;28;20440;-73
2022/09/29 06:18:46;;;;;;;20.67;14.32;;;6.70;99.10;;;;;;5055961;28;20449;-71
2022/09/29 06:21:14;;;;;;;29.23;15.03;;;6.70;99.00;;;;;;5057540;28;20478;-70
2022/09/29 06:23:41;;;;;;;55.63;16.45;;;6.70;99.10;;;;;;5065363;28;20439;-72
2022/09/29 06:26:10;;;;;;;64.20;16.73;;;6.60;98.90;;;;;;5055590;28;20421;-72
2022/09/29 06:28:37;;;;;;;23.67;15.50;;;6.60;99.00;;;;;;5062505;28;20919;-72
2022/09/29 06:31:07;;;;;;;58.22;18.55;;;6.60;99.50;;;;;;5065990;28;20431;-70
2022/09/29 06:33:36;;;;;;;17.33;15.20;;;6.60;99.00;;;;;;5058997;28;20433;-72
2022/09/29 06:38:51;;;;;;;29.42;16.60;;;6.60;99.20;;;;;;5057627;28;20411;-71
2022/09/29 06:41:19;;;;;;;84.30;19.70;;;6.70;99.40;;;;;;5063168;28;20450;-71
2022/09/29 06:43:46;;;;;;;38.92;18.20;;;6.70;99.40;;;;;;5066512;28;20554;-71
2022/09/29 06:46:13;;;;;;;41.08;17.40;;;6.70;99.40;;;;;;5056306;28;20431;-71
2022/09/29 06:48:41;;;;;;;154.27;23.17;;;6.70;99.40;;;;;;5064438;28;20423;-71
2022/09/29 06:51:08;;;;;;;44.78;16.42;;;6.70;99.30;;;;;;5062121;28;20445;-71
2022/09/29 06:53:35;;;;;;;31.45;18.10;;;6.70;99.40;;;;;;5064243;28;20954;-71
2022/09/29 06:56:02;;;;;;;28.90;18.40;;;6.70;99.40;;;;;;5063765;28;20415;-71
2022/09/29 06:58:29;;;;;;;32.00;17.92;;;6.70;99.50;;;;;;5055958;28;20417;-72
2022/09/29 07:01:00;;;;;;;22.30;18.73;;;6.70;99.50;;;;;;5061858;28;20444;-71
2022/09/29 07:03:26;;;;;;;19.40;17.60;;;6.80;99.50;;;;;;5061846;28;20471;-71
2022/09/29 07:05:54;;;;;;;64.03;20.60;;;6.80;99.60;;;;;;5064210;28;20907;-71
2022/09/29 07:08:21;;;;;;;34.38;18.30;;;6.90;99.60;;;;;;5061264;28;20431;-71
2022/09/29 07:10:48;;;;;;;21.90;17.92;;;6.90;99.60;;;;;;5067443;28;20427;-72
2022/09/29 07:13:15;;;;;;;18.85;16.95;;;7.00;99.60;;;;;;5067110;28;20427;-72
2022/09/29 07:15:41;;;;;;;19.42;17.42;;;7.00;99.50;;;;;;5066754;28;20435;-72
2022/09/29 07:18:08;;;;;;;19.63;17.73;;;7.00;99.50;;;;;;5065896;28;20877;-70
2022/09/29 07:20:36;;;;;;;22.58;19.73;;;7.00;99.40;;;;;;5060501;28;20437;-71
2022/09/29 07:23:04;;;;;;;19.45;17.75;;;7.10;99.20;;;;;;5068310;28;20694;-72
2022/09/29 07:25:33;;;;;;;21.13;19.23;;;7.00;99.00;;;;;;5069913;28;20428;-71
2022/09/29 07:28:00;;;;;;;20.40;18.60;;;7.00;98.90;;;;;;5067953;28;20492;-71
2022/09/29 07:30:27;;;;;;;18.83;17.33;;;7.10;98.90;;;;;;5068803;28;20434;-71
2022/09/29 07:32:54;;;;;;;19.40;17.60;;;7.20;98.60;;;;;;5063262;28;20417;-70
2022/09/29 07:35:21;;;;;;;19.23;17.63;;;7.30;98.60;;;;;;5069401;28;20435;-70
2022/09/29 07:37:51;;;;;;;18.90;17.40;;;7.40;98.40;;;;;;5056843;28;20426;-70
2022/09/29 07:40:19;;;;;;;19.27;17.65;;;7.50;98.30;;;;;;5068704;28;20432;-70
2022/09/29 07:42:46;;;;;;;20.38;18.38;;;7.50;98.20;;;;;;5055544;28;20432;-69
2022/09/29 07:45:13;;;;;;;21.42;19.63;;;7.50;98.00;;;;;;5062391;28;20432;-72
2022/09/29 07:47:40;;;;;;;20.90;19.10;;;7.50;97.80;;;;;;5069241;28;20468;-73
2022/09/29 07:50:07;;;;;;;22.75;20.67;;;7.60;97.70;;;;;;5067801;28;20435;-71
2022/09/29 07:52:34;;;;;;;22.48;20.48;;;7.60;97.50;;;;;;5068214;28;20799;-71
2022/09/29 07:55:01;;;;;;;22.85;20.95;;;7.60;97.40;;;;;;5069065;28;20427;-72
2022/09/29 07:57:29;;;;;;;23.00;20.90;;;7.60;97.40;;;;;;5068078;28;20938;-71
2022/09/29 07:59:57;;;;;;;22.83;20.83;;;7.70;97.40;;;;;;5067100;28;20435;-71
2022/09/29 08:02:24;;;;;;;22.05;20.15;;;7.80;97.40;;;;;;5064285;28;20423;-70
2022/09/29 08:04:51;;;;;;;21.10;19.30;;;7.80;97.30;;;;;;5069232;28;20443;-70
2022/09/29 08:07:17;;;;;;;22.77;20.85;;;7.80;97.20;;;;;;5064906;28;20503;-70
2022/09/29 08:09:44;;;;;;;22.08;20.27;;;7.90;96.80;;;;;;5061233;28;20432;-71
2022/09/29 08:12:12;;;;;;;21.92;20.13;;;7.90;96.80;;;;;;5065626;28;20449;-70
2022/09/29 08:14:42;;;;;;;21.60;19.70;;;8.00;97.00;;;;;;5066708;28;20436;-70
2022/09/29 08:17:09;;;;;;;21.20;19.40;;;8.10;96.60;;;;;;5065650;28;20431;-70
2022/09/29 08:19:35;;;;;;;20.25;18.55;;;8.20;96.50;;;;;;5057764;28;20417;-70
2022/09/29 08:22:02;;;;;;;20.10;18.40;;;8.40;96.40;;;;;;5066324;28;20431;-72
2022/09/29 08:24:30;;;;;;;22.00;20.00;;;8.50;96.10;;;;;;5064711;28;20424;-73
2022/09/29 08:26:57;;;;;;;20.55;18.75;;;8.50;95.20;;;;;;5068420;28;20550;-71
2022/09/29 08:29:23;;;;;;;20.35;18.35;;;8.60;95.20;;;;;;5066787;28;20431;-71
2022/09/29 08:31:52;;;;;;;18.27;16.67;;;8.80;95.10;;;;;;5070409;28;20427;-71
2022/09/29 08:34:19;;;;;;;19.90;18.10;;;8.80;95.00;;;;;;5069403;28;20419;-71
2022/09/29 08:36:46;;;;;;;20.50;18.60;;;9.00;94.80;;;;;;5063221;28;20468;-71
2022/09/29 08:39:14;;;;;;;19.40;17.70;;;9.10;93.80;;;;;;5059895;28;20431;-71
2022/09/29 08:41:50;;;;;;;19.03;17.13;;;9.20;93.70;;;;;;5056580;28;20427;-70
2022/09/29 08:44:22;;;;;;;20.48;18.58;;;9.30;93.70;;;;;;5056507;28;20930;-72
2022/09/29 08:46:54;;;;;;;19.85;17.95;;;9.40;93.10;;;;;;5058022;28;20803;-71
2022/09/29 08:49:25;;;;;;;21.63;19.63;;;9.40;93.00;;;;;;5068573;28;20432;-71
2022/09/29 08:51:56;;;;;;;21.55;19.73;;;9.50;93.10;;;;;;5067658;28;20423;-71
2022/09/29 08:54:29;;;;;;;22.02;20.10;;;9.50;93.10;;;;;;5061622;28;20446;-71
2022/09/29 08:56:57;;;;;;;22.30;20.30;;;9.70;93.30;;;;;;5064961;28;20420;-71
2022/09/29 08:59:26;;;;;;;21.60;19.60;;;9.80;93.10;;;;;;5067779;28;20424;-71
2022/09/29 09:02:07;;;;;;;22.70;20.60;;;10.00;92.50;;;;;;5067184;28;20511;-71
2022/09/29 09:05:12;;;;;;;21.63;19.67;;;10.00;92.00;;;;;;5063863;28;20426;-71
2022/09/29 09:07:46;;;;;;;23.02;20.98;;;10.00;92.00;;;;;;5044274;28;20430;-71
2022/09/29 09:10:25;;;;;;;22.52;20.35;;;10.00;91.90;;;;;;5067257;28;20427;-70
2022/09/29 09:13:12;;;;;;;21.65;19.73;;;10.20;92.00;;;;;;5057283;28;20439;-71
2022/09/29 09:15:52;;;;;;;19.50;17.70;;;10.60;91.50;;;;;;5059963;28;20423;-70
2022/09/29 09:18:46;;;;;;;18.42;16.92;;;11.00;90.70;;;;;;5066523;28;20431;-70
2022/09/29 09:21:18;;;;;;;17.35;15.95;;;11.60;89.00;;;;;;5068671;28;20473;-71
2022/09/29 09:23:54;;;;;;;16.67;15.27;;;12.00;87.20;;;;;;5067570;28;20415;-70
2022/09/29 09:26:30;;;;;;;16.80;15.50;;;12.30;85.20;;;;;;5060389;28;20433;-71
2022/09/29 09:29:02;;;;;;;16.45;14.85;;;12.70;82.60;;;;;;5065756;28;20434;-70
2022/09/29 09:31:38;;;;;;;14.73;13.43;;;13.00;81.60;;;;;;5055497;28;20438;-69
2022/09/29 09:34:14;;;;;;;14.80;13.40;;;13.50;79.30;;;;;;5067515;28;20455;-69
2022/09/29 09:36:45;;;;;;;13.27;12.10;;;13.80;77.30;;;;;;5056242;28;20407;-70
2022/09/29 09:39:14;;;;;;;12.10;11.10;;;14.20;75.30;;;;;;5067262;28;20430;-70
2022/09/29 09:41:46;;;;;;;12.18;11.18;;;14.40;73.90;;;;;;5061319;28;20417;-69
2022/09/29 09:44:17;;;;;;;12.70;11.67;;;14.70;72.50;;;;;;5061734;28;20899;-70
2022/09/29 09:46:49;;;;;;;12.48;11.38;;;15.00;71.30;;;;;;5067177;28;20446;-70
2022/09/29 09:49:23;;;;;;;11.80;10.90;;;15.20;68.40;;;;;;5066231;28;20438;-70
2022/09/29 09:51:56;;;;;;;11.57;10.68;;;15.40;68.90;;;;;;5068208;28;20430;-70
2022/09/29 09:54:33;;;;;;;11.50;10.65;;;15.60;68.30;;;;;;5056736;28;20428;-70
2022/09/29 09:57:15;;;;;;;10.23;9.32;;;15.80;67.70;;;;;;5065558;28;20524;-70
2022/09/29 09:59:56;;;;;;;9.80;9.00;;;16.10;65.60;;;;;;5062255;28;20502;-70
2022/09/29 10:02:24;;;;;;;9.00;8.20;;;16.20;65.60;;;;;;5058676;28;20442;-70
2022/09/29 10:04:54;;;;;;;9.60;8.90;;;16.40;63.90;;;;;;5055704;28;20436;-70
2022/09/29 10:07:24;;;;;;;9.52;8.60;;;16.50;63.80;;;;;;5067852;28;20423;-70
2022/09/29 10:09:51;;;;;;;8.90;8.10;;;16.50;63.80;;;;;;5062803;28;20435;-69
2022/09/29 10:12:20;;;;;;;8.10;7.40;;;16.80;62.70;;;;;;5061307;28;20426;-70
2022/09/29 10:14:52;;;;;;;7.60;6.90;;;17.00;62.60;;;;;;5059614;28;20438;-70
2022/09/29 10:17:23;;;;;;;7.18;6.60;;;17.30;61.70;;;;;;5067052;28;20426;-69
2022/09/29 10:19:57;;;;;;;7.55;6.95;;;17.60;60.60;;;;;;5065610;28;20427;-75
2022/09/29 10:22:24;;;;;;;7.53;6.93;;;17.80;59.10;;;;;;5062061;28;20420;-70
2022/09/29 10:24:55;;;;;;;6.60;6.10;;;17.90;59.70;;;;;;5070612;22;20955;-69
2022/09/29 10:27:25;;;;;;;6.90;6.40;;;18.20;56.80;;;;;;5039201;28;20422;-69
2022/09/29 10:29:53;;;;;;;6.70;6.00;;;18.40;57.00;;;;;;5036666;28;20498;-69
2022/09/29 10:32:25;;;;;;;6.32;5.82;;;18.40;56.10;;;;;;5042853;28;20437;-70
2022/09/29 10:35:02;;;;;;;7.03;6.30;;;18.40;54.70;;;;;;5043087;28;20917;-69
2022/09/29 10:37:34;;;;;;;6.53;6.03;;;18.40;54.80;;;;;;5042452;28;20770;-70
2022/09/29 10:40:13;;;;;;;5.90;5.40;;;18.60;55.10;;;;;;5042143;28;20440;-70
2022/09/29 10:42:42;;;;;;;5.20;4.70;;;18.80;55.00;;;;;;5044908;28;20440;-70
2022/09/29 10:45:13;;;;;;;6.13;5.65;;;18.90;54.70;;;;;;5047488;28;20495;-69
2022/09/29 10:47:41;;;;;;;5.60;5.20;;;19.00;53.00;;;;;;5046549;28;20421;-70
2022/09/29 10:50:18;;;;;;;5.25;4.85;;;18.80;52.30;;;;;;5044741;28;20429;-70
2022/09/29 10:52:50;;;;;;;5.35;4.85;;;18.80;53.00;;;;;;5041661;28;20444;-70
2022/09/29 10:55:20;;;;;;;5.07;4.68;;;18.90;53.00;;;;;;5041882;28;20424;-70
2022/09/29 10:57:47;;;;;;;5.10;4.60;;;19.00;51.70;;;;;;5045140;28;20439;-70
2022/09/29 11:00:29;;;;;;;5.50;5.00;;;19.10;49.80;;;;;;5038309;28;20429;-71
2022/09/29 11:03:08;;;;;;;4.72;4.32;;;19.00;51.20;;;;;;5047212;28;20413;-71
2022/09/29 11:05:38;;;;;;;5.00;4.60;;;19.00;51.20;;;;;;5045382;28;20479;-70
2022/09/29 11:08:12;;;;;;;4.47;4.00;;;19.10;50.70;;;;;;5044733;28;20445;-70
2022/09/29 11:10:38;;;;;;;5.67;4.20;;;19.20;49.30;;;;;;5045544;28;21097;-71
2022/09/29 11:13:34;;;;;;;5.50;4.72;;;19.40;49.00;;;;;;5046245;28;20436;-71
2022/09/29 11:16:05;;;;;;;4.33;3.90;;;19.70;48.30;;;;;;5047629;28;20530;-70
2022/09/29 11:18:36;;;;;;;4.40;4.10;;;19.80;46.00;;;;;;5047919;28;20981;-69
2022/09/29 11:21:23;;;;;;;4.10;3.80;;;19.90;46.40;;;;;;5039533;28;20426;-70
2022/09/29 11:23:57;;;;;;;22.53;6.57;;;19.90;48.20;;;;;;5045825;28;20826;-70
2022/09/29 11:26:32;;;;;;;4.10;3.70;;;20.10;47.10;;;;;;5045039;28;20451;-69
2022/09/29 11:29:13;;;;;;;3.53;3.22;;;20.20;46.80;;;;;;5045172;28;20440;-70
2022/09/29 11:31:55;;;;;;;3.13;2.70;;;20.30;45.60;;;;;;5045160;28;20497;-69
2022/09/29 11:34:55;;;;;;;3.80;3.40;;;20.50;46.60;;;;;;5044229;28;20531;-69
2022/09/29 11:37:35;;;;;;;3.50;3.20;;;20.90;44.90;;;;;;5040699;28;20802;-70
2022/09/29 11:40:10;;;;;;;2.78;2.58;;;20.90;44.70;;;;;;5045710;28;20496;-69
2022/09/29 11:42:55;;;;;;;3.30;2.10;;;20.90;44.30;;;;;;5044009;28;20437;-69
2022/09/29 11:45:34;;;;;;;3.72;2.25;;;20.90;41.00;;;;;;5037573;28;20484;-71
2022/09/29 11:48:36;;;;;;;2.10;1.70;;;20.90;42.80;;;;;;5045287;28;20944;-73
2022/09/29 11:51:13;;;;;;;2.10;1.80;;;21.10;40.10;;;;;;5045938;28;20503;-73
2022/09/29 11:54:06;;;;;;;2.65;1.70;;;21.40;40.30;;;;;;5043419;28;20945;-72
2022/09/29 11:56:43;;;;;;;2.30;1.70;;;21.30;39.10;;;;;;5041724;28;20444;-71
2022/09/29 11:59:42;;;;;;;3.15;1.90;;;21.40;39.90;;;;;;5042904;28;20439;-70
2022/09/29 12:02:35;;;;;;;2.90;1.75;;;21.70;40.10;;;;;;5045267;28;20480;-71
2022/09/29 12:05:14;;;;;;;2.67;1.80;;;21.80;39.20;;;;;;5044728;28;20435;-71
2022/09/29 12:07:48;;;;;;;2.80;1.70;;;21.70;38.10;;;;;;5043497;28;20503;-71
2022/09/29 12:10:31;;;;;;;3.13;2.03;;;21.80;39.00;;;;;;5040333;28;20436;-70
2022/09/29 12:13:08;;;;;;;1.98;1.70;;;22.00;37.80;;;;;;5043293;28;20864;-70
2022/09/29 12:15:45;;;;;;;2.95;2.60;;;22.00;38.90;;;;;;5040240;28;20782;-69
2022/09/29 12:18:16;;;;;;;2.50;2.30;;;22.10;36.90;;;;;;5044189;28;20423;-70
2022/09/29 12:20:46;;;;;;;3.13;1.50;;;22.10;38.90;;;;;;5040470;28;20436;-69
2022/09/29 12:23:15;;;;;;;2.08;1.80;;;22.10;37.10;;;;;;5039524;28;20436;-70
2022/09/29 12:25:52;;;;;;;1.90;1.63;;;21.90;37.80;;;;;;5044863;28;20884;-69
2022/09/29 12:28:26;;;;;;;2.17;1.30;;;21.40;38.30;;;;;;5043148;28;20511;-70
2022/09/29 12:30:56;;;;;;;1.50;1.20;;;20.90;37.10;;;;;;5043375;28;20932;-70
2022/09/29 12:33:27;;;;;;;2.10;1.70;;;20.90;38.20;;;;;;5042091;28;20429;-70
2022/09/29 12:36:42;;;;;;;2.60;1.50;;;20.90;38.60;;;;;;5044086;28;20432;-70
2022/09/29 12:38:59;;;;;;;2.72;1.55;;;20.80;38.60;;;;;;5044516;28;20576;-71
2022/09/29 12:41:33;;;;;;;1.95;1.30;;;20.90;38.30;;;;;;5046553;28;20422;-70
2022/09/29 12:44:07;;;;;;;1.60;1.00;;;21.60;39.20;;;;;;5041554;28;20441;-68
2022/09/29 12:46:41;;;;;;;1.50;1.10;;;22.60;37.40;;;;;;5048491;28;20881;-70
2022/09/29 12:49:19;;;;;;;2.97;1.20;;;22.90;34.80;;;;;;5044710;28;20508;-70
2022/09/29 12:51:48;;;;;;;2.50;1.52;;;22.00;35.40;;;;;;5045579;28;20418;-70
2022/09/29 12:54:21;;;;;;;1.30;1.20;;;21.40;36.20;;;;;;5042050;28;20919;-69
2022/09/29 12:56:54;;;;;;;2.50;1.67;;;21.30;38.00;;;;;;5043993;28;21030;-70
2022/09/29 12:59:31;;;;;;;3.10;1.80;;;21.10;38.70;;;;;;5043145;28;20522;-71
2022/09/29 13:01:59;;;;;;;2.75;1.88;;;21.00;37.90;;;;;;5041586;28;20432;-72
2022/09/29 13:05:00;;;;;;;3.50;2.10;;;20.90;38.00;;;;;;5036932;28;20462;-71
2022/09/29 13:08:05;;;;;;;5.60;1.90;;;20.70;39.50;;;;;;5038981;28;20445;-71
2022/09/29 13:10:53;;;;;;;2.00;1.40;;;20.80;40.90;;;;;;5030199;28;20445;-71